sensor_id;sensor_type;location;lat;lon;timestamp;P1;durP1;ratioP1;P2;durP2;ratioP2
9178;SDS011;4624;48.126;11.546;2023-02-13T00:01:07;20.00;;;8.53;;
9178;SDS011;4624;48.126;11.546;2023-02-13T00:03:34;15.90;;;8.23;;
9178;SDS011;4624;48.126;11.546;2023-02-13T00:06:01;17.27;;;10.13;;
9178;SDS011;4624;48.126;11.546;2023-02-13T00:08:27;12.80;;;8.97;;
9178;SDS011;4624;48.126;11.546;2023-02-13T00:10:54;15.23;;;9.87;;
9178;SDS011;4624;48.126;11.546;2023-02-13T00:13:21;16.03;;;9.80;;
9178;SDS011;4624;48.126;11.546;2023-02-13T00:15:55;18.33;;;10.40;;
9178;SDS011;4624;48.126;11.546;2023-02-13T00:18:22;16.53;;;9.40;;
9178;SDS011;4624;48.126;11.546;2023-02-13T00:20:55;16.30;;;9.70;;
9178;SDS011;4624;48.126;11.546;2023-02-13T00:23:23;17.13;;;10.63;;
9178;SDS011;4624;48.126;11.546;2023-02-13T00:25:50;14.30;;;9.63;;
9178;SDS011;4624;48.126;11.546;2023-02-13T00:28:17;18.50;;;10.37;;
9178;SDS011;4624;48.126;11.546;2023-02-13T00:30:44;18.67;;;10.27;;
9178;SDS011;4624;48.126;11.546;2023-02-13T00:33:12;16.37;;;10.40;;
9178;SDS011;4624;48.126;11.546;2023-02-13T00:35:39;17.73;;;10.13;;
9178;SDS011;4624;48.126;11.546;2023-02-13T00:38:05;22.60;;;12.13;;
9178;SDS011;4624;48.126;11.546;2023-02-13T00:40:32;20.30;;;10.43;;
9178;SDS011;4624;48.126;11.546;2023-02-13T00:42:59;16.40;;;9.83;;
9178;SDS011;4624;48.126;11.546;2023-02-13T00:45:26;19.67;;;10.37;;
9178;SDS011;4624;48.126;11.546;2023-02-13T00:47:52;18.90;;;11.03;;
9178;SDS011;4624;48.126;11.546;2023-02-13T00:50:20;16.77;;;11.23;;
9178;SDS011;4624;48.126;11.546;2023-02-13T00:52:47;17.97;;;10.97;;
9178;SDS011;4624;48.126;11.546;2023-02-13T00:55:14;20.20;;;11.90;;
9178;SDS011;4624;48.126;11.546;2023-02-13T00:57:41;18.43;;;11.70;;
9178;SDS011;4624;48.126;11.546;2023-02-13T01:00:08;19.40;;;11.83;;
9178;SDS011;4624;48.126;11.546;2023-02-13T01:02:36;20.43;;;11.67;;
9178;SDS011;4624;48.126;11.546;2023-02-13T01:05:03;20.80;;;12.17;;
9178;SDS011;4624;48.126;11.546;2023-02-13T01:07:31;19.40;;;11.67;;
9178;SDS011;4624;48.126;11.546;2023-02-13T01:09:57;21.03;;;12.27;;
9178;SDS011;4624;48.126;11.546;2023-02-13T01:12:24;17.87;;;11.43;;
9178;SDS011;4624;48.126;11.546;2023-02-13T01:14:51;22.20;;;13.23;;
9178;SDS011;4624;48.126;11.546;2023-02-13T01:17:18;18.93;;;11.70;;
9178;SDS011;4624;48.126;11.546;2023-02-13T01:19:45;26.30;;;12.43;;
9178;SDS011;4624;48.126;11.546;2023-02-13T01:22:11;19.43;;;11.23;;
9178;SDS011;4624;48.126;11.546;2023-02-13T01:24:39;20.00;;;12.10;;
9178;SDS011;4624;48.126;11.546;2023-02-13T01:27:06;23.57;;;12.60;;
9178;SDS011;4624;48.126;11.546;2023-02-13T01:29:33;17.80;;;11.03;;
9178;SDS011;4624;48.126;11.546;2023-02-13T01:32:00;25.73;;;12.00;;
9178;SDS011;4624;48.126;11.546;2023-02-13T01:34:29;16.80;;;11.73;;
9178;SDS011;4624;48.126;11.546;2023-02-13T01:36:56;18.13;;;11.73;;
9178;SDS011;4624;48.126;11.546;2023-02-13T01:39:23;18.10;;;11.63;;
9178;SDS011;4624;48.126;11.546;2023-02-13T01:41:51;20.10;;;12.17;;
9178;SDS011;4624;48.126;11.546;2023-02-13T01:47:11;23.63;;;11.50;;
9178;SDS011;4624;48.126;11.546;2023-02-13T01:49:40;22.10;;;12.80;;
9178;SDS011;4624;48.126;11.546;2023-02-13T01:52:09;20.03;;;12.33;;
9178;SDS011;4624;48.126;11.546;2023-02-13T01:54:37;18.90;;;11.40;;
9178;SDS011;4624;48.126;11.546;2023-02-13T01:57:07;20.40;;;11.67;;
9178;SDS011;4624;48.126;11.546;2023-02-13T01:59:40;18.10;;;11.67;;
9178;SDS011;4624;48.126;11.546;2023-02-13T02:02:10;23.23;;;11.67;;
9178;SDS011;4624;48.126;11.546;2023-02-13T02:04:37;20.93;;;12.40;;
9178;SDS011;4624;48.126;11.546;2023-02-13T02:07:07;22.50;;;11.87;;
9178;SDS011;4624;48.126;11.546;2023-02-13T02:09:37;19.93;;;11.70;;
9178;SDS011;4624;48.126;11.546;2023-02-13T02:12:09;29.07;;;12.00;;
9178;SDS011;4624;48.126;11.546;2023-02-13T02:14:39;18.93;;;11.87;;
9178;SDS011;4624;48.126;11.546;2023-02-13T02:17:08;20.17;;;11.33;;
9178;SDS011;4624;48.126;11.546;2023-02-13T02:19:36;17.30;;;11.03;;
9178;SDS011;4624;48.126;11.546;2023-02-13T02:22:15;19.47;;;11.10;;
9178;SDS011;4624;48.126;11.546;2023-02-13T02:28:28;17.37;;;10.43;;
9178;SDS011;4624;48.126;11.546;2023-02-13T02:31:18;17.30;;;11.50;;
9178;SDS011;4624;48.126;11.546;2023-02-13T02:34:11;20.77;;;10.70;;
9178;SDS011;4624;48.126;11.546;2023-02-13T02:36:55;17.00;;;11.63;;
9178;SDS011;4624;48.126;11.546;2023-02-13T02:39:31;15.47;;;10.83;;
9178;SDS011;4624;48.126;11.546;2023-02-13T02:42:11;16.37;;;10.23;;
9178;SDS011;4624;48.126;11.546;2023-02-13T02:44:48;17.47;;;10.80;;
9178;SDS011;4624;48.126;11.546;2023-02-13T02:47:23;20.13;;;10.63;;
9178;SDS011;4624;48.126;11.546;2023-02-13T02:50:15;15.10;;;10.47;;
9178;SDS011;4624;48.126;11.546;2023-02-13T02:52:55;17.93;;;10.37;;
9178;SDS011;4624;48.126;11.546;2023-02-13T02:55:31;14.60;;;10.00;;
9178;SDS011;4624;48.126;11.546;2023-02-13T02:58:06;13.87;;;9.93;;
9178;SDS011;4624;48.126;11.546;2023-02-13T03:00:54;14.17;;;9.33;;
9178;SDS011;4624;48.126;11.546;2023-02-13T03:03:41;12.83;;;8.80;;
9178;SDS011;4624;48.126;11.546;2023-02-13T03:06:28;12.10;;;8.47;;
9178;SDS011;4624;48.126;11.546;2023-02-13T03:09:02;12.60;;;9.00;;
9178;SDS011;4624;48.126;11.546;2023-02-13T03:11:49;13.27;;;8.30;;
9178;SDS011;4624;48.126;11.546;2023-02-13T03:14:36;12.63;;;8.57;;
9178;SDS011;4624;48.126;11.546;2023-02-13T03:17:03;12.47;;;8.87;;
9178;SDS011;4624;48.126;11.546;2023-02-13T03:19:56;13.27;;;9.03;;
9178;SDS011;4624;48.126;11.546;2023-02-13T03:22:50;11.93;;;8.53;;
9178;SDS011;4624;48.126;11.546;2023-02-13T03:25:28;10.40;;;7.80;;
9178;SDS011;4624;48.126;11.546;2023-02-13T03:28:00;15.17;;;9.90;;
9178;SDS011;4624;48.126;11.546;2023-02-13T03:30:56;14.23;;;9.50;;
9178;SDS011;4624;48.126;11.546;2023-02-13T03:33:32;13.63;;;8.63;;
9178;SDS011;4624;48.126;11.546;2023-02-13T03:36:10;12.93;;;9.13;;
9178;SDS011;4624;48.126;11.546;2023-02-13T03:39:02;13.37;;;9.20;;
9178;SDS011;4624;48.126;11.546;2023-02-13T03:41:35;13.10;;;8.83;;
9178;SDS011;4624;48.126;11.546;2023-02-13T03:44:10;15.57;;;10.03;;
9178;SDS011;4624;48.126;11.546;2023-02-13T03:46:42;14.77;;;9.87;;
9178;SDS011;4624;48.126;11.546;2023-02-13T03:49:13;11.13;;;8.27;;
9178;SDS011;4624;48.126;11.546;2023-02-13T03:52:05;11.80;;;8.27;;
9178;SDS011;4624;48.126;11.546;2023-02-13T03:54:39;11.83;;;8.53;;
9178;SDS011;4624;48.126;11.546;2023-02-13T03:57:27;10.33;;;7.87;;
9178;SDS011;4624;48.126;11.546;2023-02-13T04:00:14;11.87;;;7.17;;
9178;SDS011;4624;48.126;11.546;2023-02-13T04:02:46;11.53;;;8.13;;
9178;SDS011;4624;48.126;11.546;2023-02-13T04:05:17;11.23;;;7.83;;
9178;SDS011;4624;48.126;11.546;2023-02-13T04:07:46;10.40;;;7.73;;
9178;SDS011;4624;48.126;11.546;2023-02-13T04:10:15;9.77;;;7.23;;
9178;SDS011;4624;48.126;11.546;2023-02-13T04:12:47;9.20;;;6.80;;
9178;SDS011;4624;48.126;11.546;2023-02-13T04:15:20;12.80;;;7.70;;
9178;SDS011;4624;48.126;11.546;2023-02-13T04:17:54;12.37;;;6.97;;
9178;SDS011;4624;48.126;11.546;2023-02-13T04:20:25;10.97;;;7.37;;
9178;SDS011;4624;48.126;11.546;2023-02-13T04:22:52;10.63;;;7.07;;
9178;SDS011;4624;48.126;11.546;2023-02-13T04:25:20;10.87;;;7.83;;
9178;SDS011;4624;48.126;11.546;2023-02-13T04:27:48;9.67;;;7.90;;
9178;SDS011;4624;48.126;11.546;2023-02-13T04:30:14;12.27;;;8.00;;
9178;SDS011;4624;48.126;11.546;2023-02-13T04:32:41;11.53;;;8.73;;
9178;SDS011;4624;48.126;11.546;2023-02-13T04:35:08;9.93;;;7.80;;
9178;SDS011;4624;48.126;11.546;2023-02-13T04:37:35;10.53;;;7.77;;
9178;SDS011;4624;48.126;11.546;2023-02-13T04:40:02;9.70;;;7.60;;
9178;SDS011;4624;48.126;11.546;2023-02-13T04:42:31;11.07;;;8.43;;
9178;SDS011;4624;48.126;11.546;2023-02-13T04:44:57;8.47;;;7.33;;
9178;SDS011;4624;48.126;11.546;2023-02-13T04:47:24;10.93;;;8.07;;
9178;SDS011;4624;48.126;11.546;2023-02-13T04:49:51;12.43;;;7.80;;
9178;SDS011;4624;48.126;11.546;2023-02-13T04:52:18;10.93;;;8.07;;
9178;SDS011;4624;48.126;11.546;2023-02-13T04:54:45;12.63;;;9.03;;
9178;SDS011;4624;48.126;11.546;2023-02-13T04:57:11;11.83;;;8.63;;
9178;SDS011;4624;48.126;11.546;2023-02-13T04:59:40;12.97;;;9.07;;
9178;SDS011;4624;48.126;11.546;2023-02-13T05:02:07;11.87;;;8.87;;
9178;SDS011;4624;48.126;11.546;2023-02-13T05:04:34;12.60;;;9.83;;
9178;SDS011;4624;48.126;11.546;2023-02-13T05:07:00;13.57;;;9.60;;
9178;SDS011;4624;48.126;11.546;2023-02-13T05:09:27;12.50;;;9.20;;
9178;SDS011;4624;48.126;11.546;2023-02-13T05:11:54;15.23;;;8.23;;
9178;SDS011;4624;48.126;11.546;2023-02-13T05:14:21;14.53;;;8.70;;
9178;SDS011;4624;48.126;11.546;2023-02-13T05:16:49;11.53;;;9.20;;
9178;SDS011;4624;48.126;11.546;2023-02-13T05:19:16;10.23;;;8.63;;
9178;SDS011;4624;48.126;11.546;2023-02-13T05:21:43;14.37;;;9.80;;
9178;SDS011;4624;48.126;11.546;2023-02-13T05:24:27;10.77;;;8.80;;
9178;SDS011;4624;48.126;11.546;2023-02-13T05:26:53;12.27;;;8.23;;
9178;SDS011;4624;48.126;11.546;2023-02-13T05:29:20;11.20;;;8.73;;
9178;SDS011;4624;48.126;11.546;2023-02-13T05:31:47;11.87;;;9.30;;
9178;SDS011;4624;48.126;11.546;2023-02-13T05:34:17;11.73;;;9.10;;
9178;SDS011;4624;48.126;11.546;2023-02-13T05:36:44;14.40;;;10.43;;
9178;SDS011;4624;48.126;11.546;2023-02-13T05:39:12;13.70;;;10.30;;
9178;SDS011;4624;48.126;11.546;2023-02-13T05:41:39;12.43;;;9.60;;
9178;SDS011;4624;48.126;11.546;2023-02-13T05:44:06;13.70;;;10.23;;
9178;SDS011;4624;48.126;11.546;2023-02-13T05:46:33;12.47;;;9.83;;
9178;SDS011;4624;48.126;11.546;2023-02-13T05:49:03;11.47;;;9.13;;
9178;SDS011;4624;48.126;11.546;2023-02-13T05:51:30;12.73;;;9.60;;
9178;SDS011;4624;48.126;11.546;2023-02-13T05:53:57;12.37;;;9.23;;
9178;SDS011;4624;48.126;11.546;2023-02-13T05:56:24;10.93;;;9.33;;
9178;SDS011;4624;48.126;11.546;2023-02-13T05:58:51;11.67;;;9.63;;
9178;SDS011;4624;48.126;11.546;2023-02-13T06:01:18;13.70;;;10.53;;
9178;SDS011;4624;48.126;11.546;2023-02-13T06:03:45;14.37;;;10.17;;
9178;SDS011;4624;48.126;11.546;2023-02-13T06:06:14;16.40;;;11.10;;
9178;SDS011;4624;48.126;11.546;2023-02-13T06:08:42;13.57;;;10.67;;
9178;SDS011;4624;48.126;11.546;2023-02-13T06:11:10;16.13;;;10.40;;
9178;SDS011;4624;48.126;11.546;2023-02-13T06:13:36;17.27;;;11.53;;
9178;SDS011;4624;48.126;11.546;2023-02-13T06:16:04;15.70;;;10.73;;
9178;SDS011;4624;48.126;11.546;2023-02-13T06:18:31;17.30;;;11.27;;
9178;SDS011;4624;48.126;11.546;2023-02-13T06:20:58;15.10;;;10.57;;
9178;SDS011;4624;48.126;11.546;2023-02-13T06:23:26;14.53;;;10.87;;
9178;SDS011;4624;48.126;11.546;2023-02-13T06:25:53;14.80;;;11.10;;
9178;SDS011;4624;48.126;11.546;2023-02-13T06:28:20;16.93;;;11.27;;
9178;SDS011;4624;48.126;11.546;2023-02-13T06:30:47;17.93;;;11.50;;
9178;SDS011;4624;48.126;11.546;2023-02-13T06:33:14;15.60;;;10.80;;
9178;SDS011;4624;48.126;11.546;2023-02-13T06:35:40;16.20;;;10.87;;
9178;SDS011;4624;48.126;11.546;2023-02-13T06:38:07;14.13;;;10.70;;
9178;SDS011;4624;48.126;11.546;2023-02-13T06:40:35;18.97;;;11.57;;
9178;SDS011;4624;48.126;11.546;2023-02-13T06:43:02;14.77;;;10.90;;
9178;SDS011;4624;48.126;11.546;2023-02-13T06:45:29;13.73;;;10.67;;
9178;SDS011;4624;48.126;11.546;2023-02-13T06:47:55;17.93;;;10.90;;
9178;SDS011;4624;48.126;11.546;2023-02-13T06:50:22;16.27;;;11.93;;
9178;SDS011;4624;48.126;11.546;2023-02-13T06:52:50;15.87;;;11.57;;
9178;SDS011;4624;48.126;11.546;2023-02-13T06:55:17;16.40;;;11.63;;
9178;SDS011;4624;48.126;11.546;2023-02-13T06:57:46;16.57;;;11.60;;
9178;SDS011;4624;48.126;11.546;2023-02-13T07:00:14;17.03;;;11.23;;
9178;SDS011;4624;48.126;11.546;2023-02-13T07:02:42;15.17;;;10.63;;
9178;SDS011;4624;48.126;11.546;2023-02-13T07:05:10;18.70;;;11.70;;
9178;SDS011;4624;48.126;11.546;2023-02-13T07:07:37;16.97;;;12.60;;
9178;SDS011;4624;48.126;11.546;2023-02-13T07:10:05;15.97;;;11.37;;
9178;SDS011;4624;48.126;11.546;2023-02-13T07:12:37;14.57;;;10.87;;
9178;SDS011;4624;48.126;11.546;2023-02-13T07:15:05;14.83;;;11.50;;
9178;SDS011;4624;48.126;11.546;2023-02-13T07:17:33;16.13;;;11.17;;
9178;SDS011;4624;48.126;11.546;2023-02-13T07:20:00;16.80;;;10.97;;
9178;SDS011;4624;48.126;11.546;2023-02-13T07:22:29;16.07;;;11.43;;
9178;SDS011;4624;48.126;11.546;2023-02-13T07:24:56;15.40;;;11.70;;
9178;SDS011;4624;48.126;11.546;2023-02-13T07:27:24;16.47;;;11.00;;
9178;SDS011;4624;48.126;11.546;2023-02-13T07:29:53;16.27;;;12.23;;
9178;SDS011;4624;48.126;11.546;2023-02-13T07:32:21;17.87;;;11.90;;
9178;SDS011;4624;48.126;11.546;2023-02-13T07:34:48;17.60;;;12.90;;
9178;SDS011;4624;48.126;11.546;2023-02-13T07:37:15;18.70;;;12.03;;
9178;SDS011;4624;48.126;11.546;2023-02-13T07:39:41;16.57;;;11.03;;
9178;SDS011;4624;48.126;11.546;2023-02-13T07:42:08;18.80;;;11.57;;
9178;SDS011;4624;48.126;11.546;2023-02-13T07:44:35;16.57;;;11.50;;
9178;SDS011;4624;48.126;11.546;2023-02-13T07:47:01;17.20;;;11.57;;
9178;SDS011;4624;48.126;11.546;2023-02-13T07:49:30;17.10;;;11.63;;
9178;SDS011;4624;48.126;11.546;2023-02-13T07:51:56;18.57;;;12.13;;
9178;SDS011;4624;48.126;11.546;2023-02-13T07:54:23;15.30;;;10.90;;
9178;SDS011;4624;48.126;11.546;2023-02-13T07:56:50;16.03;;;12.03;;
9178;SDS011;4624;48.126;11.546;2023-02-13T07:59:17;17.03;;;12.00;;
9178;SDS011;4624;48.126;11.546;2023-02-13T08:01:43;16.60;;;12.13;;
9178;SDS011;4624;48.126;11.546;2023-02-13T08:04:10;16.10;;;11.40;;
9178;SDS011;4624;48.126;11.546;2023-02-13T08:06:39;14.80;;;10.97;;
9178;SDS011;4624;48.126;11.546;2023-02-13T08:09:06;15.87;;;11.10;;
9178;SDS011;4624;48.126;11.546;2023-02-13T08:11:51;16.57;;;12.13;;
9178;SDS011;4624;48.126;11.546;2023-02-13T08:14:19;16.17;;;11.33;;
9178;SDS011;4624;48.126;11.546;2023-02-13T08:16:46;17.10;;;12.10;;
9178;SDS011;4624;48.126;11.546;2023-02-13T08:19:12;17.10;;;12.67;;
9178;SDS011;4624;48.126;11.546;2023-02-13T08:21:40;18.17;;;13.47;;
9178;SDS011;4624;48.126;11.546;2023-02-13T08:24:07;16.83;;;12.03;;
9178;SDS011;4624;48.126;11.546;2023-02-13T08:26:34;18.73;;;12.87;;
9178;SDS011;4624;48.126;11.546;2023-02-13T08:29:01;20.43;;;13.30;;
9178;SDS011;4624;48.126;11.546;2023-02-13T08:31:28;19.43;;;12.30;;
9178;SDS011;4624;48.126;11.546;2023-02-13T08:33:55;18.53;;;12.13;;
9178;SDS011;4624;48.126;11.546;2023-02-13T08:36:22;20.83;;;12.57;;
9178;SDS011;4624;48.126;11.546;2023-02-13T08:38:50;18.90;;;13.10;;
9178;SDS011;4624;48.126;11.546;2023-02-13T08:41:17;18.10;;;12.60;;
9178;SDS011;4624;48.126;11.546;2023-02-13T08:43:46;17.00;;;12.17;;
9178;SDS011;4624;48.126;11.546;2023-02-13T08:46:12;16.70;;;11.57;;
9178;SDS011;4624;48.126;11.546;2023-02-13T08:48:39;16.20;;;12.07;;
9178;SDS011;4624;48.126;11.546;2023-02-13T08:51:06;17.37;;;12.40;;
9178;SDS011;4624;48.126;11.546;2023-02-13T08:53:34;16.23;;;11.80;;
9178;SDS011;4624;48.126;11.546;2023-02-13T08:56:03;18.10;;;11.87;;
9178;SDS011;4624;48.126;11.546;2023-02-13T08:58:30;15.87;;;11.27;;
9178;SDS011;4624;48.126;11.546;2023-02-13T09:00:57;17.03;;;12.20;;
9178;SDS011;4624;48.126;11.546;2023-02-13T09:03:24;15.93;;;11.20;;
9178;SDS011;4624;48.126;11.546;2023-02-13T09:05:50;15.87;;;11.90;;
9178;SDS011;4624;48.126;11.546;2023-02-13T09:08:17;15.90;;;11.47;;
9178;SDS011;4624;48.126;11.546;2023-02-13T09:10:44;17.03;;;12.37;;
9178;SDS011;4624;48.126;11.546;2023-02-13T09:13:12;16.77;;;12.17;;
9178;SDS011;4624;48.126;11.546;2023-02-13T09:15:39;18.23;;;12.90;;
9178;SDS011;4624;48.126;11.546;2023-02-13T09:18:06;18.53;;;12.50;;
9178;SDS011;4624;48.126;11.546;2023-02-13T09:20:33;16.33;;;12.00;;
9178;SDS011;4624;48.126;11.546;2023-02-13T09:23:00;17.73;;;12.53;;
9178;SDS011;4624;48.126;11.546;2023-02-13T09:25:26;18.17;;;11.73;;
9178;SDS011;4624;48.126;11.546;2023-02-13T09:27:53;16.77;;;11.57;;
9178;SDS011;4624;48.126;11.546;2023-02-13T09:30:21;16.63;;;11.67;;
9178;SDS011;4624;48.126;11.546;2023-02-13T09:32:48;14.77;;;10.93;;
9178;SDS011;4624;48.126;11.546;2023-02-13T09:35:15;18.23;;;11.67;;
9178;SDS011;4624;48.126;11.546;2023-02-13T09:37:42;15.17;;;11.63;;
9178;SDS011;4624;48.126;11.546;2023-02-13T09:40:15;18.37;;;11.40;;
9178;SDS011;4624;48.126;11.546;2023-02-13T09:42:45;15.93;;;11.17;;
9178;SDS011;4624;48.126;11.546;2023-02-13T09:45:13;18.77;;;11.73;;
9178;SDS011;4624;48.126;11.546;2023-02-13T09:47:46;15.50;;;11.80;;
9178;SDS011;4624;48.126;11.546;2023-02-13T09:50:16;16.37;;;11.47;;
9178;SDS011;4624;48.126;11.546;2023-02-13T09:52:46;18.37;;;11.17;;
9178;SDS011;4624;48.126;11.546;2023-02-13T09:55:16;16.10;;;11.87;;
9178;SDS011;4624;48.126;11.546;2023-02-13T09:57:46;14.87;;;11.07;;
9178;SDS011;4624;48.126;11.546;2023-02-13T10:00:20;17.07;;;11.53;;
9178;SDS011;4624;48.126;11.546;2023-02-13T10:03:06;14.97;;;11.27;;
9178;SDS011;4624;48.126;11.546;2023-02-13T10:05:45;17.83;;;10.73;;
9178;SDS011;4624;48.126;11.546;2023-02-13T10:08:24;15.10;;;11.13;;
9178;SDS011;4624;48.126;11.546;2023-02-13T10:11:01;18.83;;;11.70;;
9178;SDS011;4624;48.126;11.546;2023-02-13T10:13:42;17.50;;;12.47;;
9178;SDS011;4624;48.126;11.546;2023-02-13T10:16:16;17.50;;;11.07;;
9178;SDS011;4624;48.126;11.546;2023-02-13T10:18:49;17.10;;;11.87;;
9178;SDS011;4624;48.126;11.546;2023-02-13T10:21:20;16.77;;;12.40;;
9178;SDS011;4624;48.126;11.546;2023-02-13T10:23:56;14.47;;;11.07;;
9178;SDS011;4624;48.126;11.546;2023-02-13T10:26:26;16.73;;;12.30;;
9178;SDS011;4624;48.126;11.546;2023-02-13T10:29:07;16.63;;;11.80;;
9178;SDS011;4624;48.126;11.546;2023-02-13T10:31:56;15.80;;;11.37;;
9178;SDS011;4624;48.126;11.546;2023-02-13T10:34:28;16.00;;;10.80;;
9178;SDS011;4624;48.126;11.546;2023-02-13T10:36:59;15.57;;;10.90;;
9178;SDS011;4624;48.126;11.546;2023-02-13T10:39:26;15.77;;;11.20;;
9178;SDS011;4624;48.126;11.546;2023-02-13T10:41:56;14.43;;;10.53;;
9178;SDS011;4624;48.126;11.546;2023-02-13T10:44:31;19.27;;;11.47;;
9178;SDS011;4624;48.126;11.546;2023-02-13T10:47:13;16.03;;;11.33;;
9178;SDS011;4624;48.126;11.546;2023-02-13T10:49:57;17.73;;;10.73;;
9178;SDS011;4624;48.126;11.546;2023-02-13T10:52:41;16.20;;;11.50;;
9178;SDS011;4624;48.126;11.546;2023-02-13T10:55:40;15.87;;;10.73;;
9178;SDS011;4624;48.126;11.546;2023-02-13T10:58:17;16.03;;;11.57;;
9178;SDS011;4624;48.126;11.546;2023-02-13T11:00:51;18.23;;;12.83;;
9178;SDS011;4624;48.126;11.546;2023-02-13T11:03:24;17.97;;;11.80;;
9178;SDS011;4624;48.126;11.546;2023-02-13T11:05:54;16.50;;;11.70;;
9178;SDS011;4624;48.126;11.546;2023-02-13T11:08:23;15.23;;;11.33;;
9178;SDS011;4624;48.126;11.546;2023-02-13T11:10:51;17.10;;;12.67;;
9178;SDS011;4624;48.126;11.546;2023-02-13T11:13:19;16.97;;;12.20;;
9178;SDS011;4624;48.126;11.546;2023-02-13T11:15:57;17.33;;;12.23;;
9178;SDS011;4624;48.126;11.546;2023-02-13T11:18:26;21.97;;;12.97;;
9178;SDS011;4624;48.126;11.546;2023-02-13T11:21:01;16.93;;;12.87;;
9178;SDS011;4624;48.126;11.546;2023-02-13T11:23:35;18.07;;;12.70;;
9178;SDS011;4624;48.126;11.546;2023-02-13T11:26:05;20.80;;;13.17;;
9178;SDS011;4624;48.126;11.546;2023-02-13T11:28:35;19.13;;;12.87;;
9178;SDS011;4624;48.126;11.546;2023-02-13T11:31:11;19.03;;;12.63;;
9178;SDS011;4624;48.126;11.546;2023-02-13T11:33:39;20.37;;;13.13;;
9178;SDS011;4624;48.126;11.546;2023-02-13T11:36:09;17.50;;;13.50;;
9178;SDS011;4624;48.126;11.546;2023-02-13T11:38:39;19.43;;;13.27;;
9178;SDS011;4624;48.126;11.546;2023-02-13T11:41:07;22.13;;;13.87;;
9178;SDS011;4624;48.126;11.546;2023-02-13T11:43:36;20.83;;;13.70;;
9178;SDS011;4624;48.126;11.546;2023-02-13T11:46:12;19.43;;;14.17;;
9178;SDS011;4624;48.126;11.546;2023-02-13T11:48:46;20.53;;;14.00;;
9178;SDS011;4624;48.126;11.546;2023-02-13T11:51:37;17.97;;;12.93;;
9178;SDS011;4624;48.126;11.546;2023-02-13T11:54:08;18.47;;;12.83;;
9178;SDS011;4624;48.126;11.546;2023-02-13T11:56:55;17.50;;;12.67;;
9178;SDS011;4624;48.126;11.546;2023-02-13T11:59:23;19.30;;;13.53;;
9178;SDS011;4624;48.126;11.546;2023-02-13T12:02:01;19.10;;;13.70;;
9178;SDS011;4624;48.126;11.546;2023-02-13T12:04:38;16.20;;;12.20;;
9178;SDS011;4624;48.126;11.546;2023-02-13T12:07:11;20.03;;;13.37;;
9178;SDS011;4624;48.126;11.546;2023-02-13T12:09:42;18.70;;;12.90;;
9178;SDS011;4624;48.126;11.546;2023-02-13T12:12:10;23.07;;;13.57;;
9178;SDS011;4624;48.126;11.546;2023-02-13T12:14:44;22.50;;;13.77;;
9178;SDS011;4624;48.126;11.546;2023-02-13T12:17:12;20.87;;;13.43;;
9178;SDS011;4624;48.126;11.546;2023-02-13T12:19:42;21.90;;;13.73;;
9178;SDS011;4624;48.126;11.546;2023-02-13T12:22:17;18.37;;;13.43;;
9178;SDS011;4624;48.126;11.546;2023-02-13T12:28:03;19.23;;;13.70;;
9178;SDS011;4624;48.126;11.546;2023-02-13T12:36:35;18.63;;;13.53;;
9178;SDS011;4624;48.126;11.546;2023-02-13T12:39:16;18.37;;;12.77;;
9178;SDS011;4624;48.126;11.546;2023-02-13T12:41:51;20.83;;;14.23;;
9178;SDS011;4624;48.126;11.546;2023-02-13T12:44:37;20.70;;;12.90;;
9178;SDS011;4624;48.126;11.546;2023-02-13T12:47:15;20.20;;;13.97;;
9178;SDS011;4624;48.126;11.546;2023-02-13T12:49:55;19.20;;;13.07;;
9178;SDS011;4624;48.126;11.546;2023-02-13T12:52:41;19.43;;;14.33;;
9178;SDS011;4624;48.126;11.546;2023-02-13T12:55:20;20.23;;;13.67;;
9178;SDS011;4624;48.126;11.546;2023-02-13T12:58:11;20.97;;;14.43;;
9178;SDS011;4624;48.126;11.546;2023-02-13T13:00:52;21.07;;;13.73;;
9178;SDS011;4624;48.126;11.546;2023-02-13T13:03:33;22.90;;;14.03;;
9178;SDS011;4624;48.126;11.546;2023-02-13T13:06:22;21.43;;;14.80;;
9178;SDS011;4624;48.126;11.546;2023-02-13T13:11:59;22.27;;;15.33;;
9178;SDS011;4624;48.126;11.546;2023-02-13T13:14:35;22.93;;;14.27;;
9178;SDS011;4624;48.126;11.546;2023-02-13T13:17:08;21.13;;;14.80;;
9178;SDS011;4624;48.126;11.546;2023-02-13T13:19:46;21.97;;;13.80;;
9178;SDS011;4624;48.126;11.546;2023-02-13T13:22:21;20.73;;;13.70;;
9178;SDS011;4624;48.126;11.546;2023-02-13T13:24:53;19.60;;;13.37;;
9178;SDS011;4624;48.126;11.546;2023-02-13T13:27:29;18.73;;;12.93;;
9178;SDS011;4624;48.126;11.546;2023-02-13T13:30:02;23.83;;;13.77;;
9178;SDS011;4624;48.126;11.546;2023-02-13T13:32:30;18.20;;;13.10;;
9178;SDS011;4624;48.126;11.546;2023-02-13T13:34:59;18.53;;;13.30;;
9178;SDS011;4624;48.126;11.546;2023-02-13T13:37:29;23.40;;;13.60;;
9178;SDS011;4624;48.126;11.546;2023-02-13T13:40:02;19.30;;;12.77;;
9178;SDS011;4624;48.126;11.546;2023-02-13T13:42:40;16.73;;;12.20;;
9178;SDS011;4624;48.126;11.546;2023-02-13T13:45:18;16.70;;;12.47;;
9178;SDS011;4624;48.126;11.546;2023-02-13T13:47:56;20.73;;;13.67;;
9178;SDS011;4624;48.126;11.546;2023-02-13T13:50:35;20.90;;;12.43;;
9178;SDS011;4624;48.126;11.546;2023-02-13T13:53:08;17.87;;;12.63;;
9178;SDS011;4624;48.126;11.546;2023-02-13T13:58:35;15.67;;;11.60;;
9178;SDS011;4624;48.126;11.546;2023-02-13T14:01:26;19.60;;;11.37;;
9178;SDS011;4624;48.126;11.546;2023-02-13T14:03:55;16.37;;;12.27;;
9178;SDS011;4624;48.126;11.546;2023-02-13T14:06:23;16.70;;;11.77;;
9178;SDS011;4624;48.126;11.546;2023-02-13T14:08:56;16.97;;;12.43;;
9178;SDS011;4624;48.126;11.546;2023-02-13T14:11:26;19.07;;;11.50;;
9178;SDS011;4624;48.126;11.546;2023-02-13T14:13:57;14.67;;;10.53;;
9178;SDS011;4624;48.126;11.546;2023-02-13T14:16:37;14.63;;;10.80;;
9178;SDS011;4624;48.126;11.546;2023-02-13T14:19:21;19.07;;;11.33;;
9178;SDS011;4624;48.126;11.546;2023-02-13T14:21:50;19.27;;;11.17;;
9178;SDS011;4624;48.126;11.546;2023-02-13T14:24:17;15.73;;;10.63;;
9178;SDS011;4624;48.126;11.546;2023-02-13T14:26:48;17.37;;;11.13;;
9178;SDS011;4624;48.126;11.546;2023-02-13T14:29:31;17.37;;;11.17;;
9178;SDS011;4624;48.126;11.546;2023-02-13T14:32:00;13.97;;;10.43;;
9178;SDS011;4624;48.126;11.546;2023-02-13T14:34:31;17.93;;;10.10;;
9178;SDS011;4624;48.126;11.546;2023-02-13T14:37:18;18.17;;;10.70;;
9178;SDS011;4624;48.126;11.546;2023-02-13T14:43:16;13.77;;;10.13;;
9178;SDS011;4624;48.126;11.546;2023-02-13T14:46:02;13.80;;;9.83;;
9178;SDS011;4624;48.126;11.546;2023-02-13T14:48:35;15.27;;;10.20;;
9178;SDS011;4624;48.126;11.546;2023-02-13T14:51:06;15.40;;;9.67;;
9178;SDS011;4624;48.126;11.546;2023-02-13T14:53:46;11.83;;;8.87;;
9178;SDS011;4624;48.126;11.546;2023-02-13T14:56:17;15.00;;;10.70;;
9178;SDS011;4624;48.126;11.546;2023-02-13T14:58:47;14.97;;;10.07;;
9178;SDS011;4624;48.126;11.546;2023-02-13T15:01:23;14.77;;;10.00;;
9178;SDS011;4624;48.126;11.546;2023-02-13T15:03:56;12.70;;;9.57;;
9178;SDS011;4624;48.126;11.546;2023-02-13T15:06:30;14.07;;;9.93;;
9178;SDS011;4624;48.126;11.546;2023-02-13T15:09:00;15.73;;;10.07;;
9178;SDS011;4624;48.126;11.546;2023-02-13T15:11:33;13.43;;;9.10;;
9178;SDS011;4624;48.126;11.546;2023-02-13T15:17:01;13.40;;;10.17;;
9178;SDS011;4624;48.126;11.546;2023-02-13T15:19:32;15.30;;;9.83;;
9178;SDS011;4624;48.126;11.546;2023-02-13T15:22:02;12.13;;;9.07;;
9178;SDS011;4624;48.126;11.546;2023-02-13T15:24:32;13.07;;;9.97;;
9178;SDS011;4624;48.126;11.546;2023-02-13T15:27:04;11.93;;;9.27;;
9178;SDS011;4624;48.126;11.546;2023-02-13T15:29:32;13.47;;;9.60;;
9178;SDS011;4624;48.126;11.546;2023-02-13T15:32:00;13.37;;;9.73;;